createdAt,value
2023-03-16T00:02:04.772Z,-1.60
2023-03-16T00:04:32.289Z,-1.63
2023-03-16T00:06:59.457Z,-1.58
2023-03-16T00:09:31.220Z,-1.52
2023-03-16T00:11:59.332Z,-1.49
2023-03-16T00:14:26.659Z,-1.49
2023-03-16T00:16:54.087Z,-1.50
2023-03-16T00:19:22.966Z,-1.57
2023-03-16T00:21:51.273Z,-1.54
2023-03-16T00:24:19.378Z,-1.49
2023-03-16T00:26:47.658Z,-1.45
2023-03-16T00:29:14.738Z,-1.47
2023-03-16T00:31:45.025Z,-1.50
2023-03-16T00:34:12.439Z,-1.56
2023-03-16T00:36:39.649Z,-1.64
2023-03-16T00:39:07.405Z,-1.60
2023-03-16T00:41:37.834Z,-1.59
2023-03-16T00:44:05.732Z,-1.61
2023-03-16T00:46:33.045Z,-1.62
2023-03-16T00:49:00.113Z,-1.64
2023-03-16T00:51:27.178Z,-1.64
2023-03-16T00:53:54.343Z,-1.72
2023-03-16T00:56:21.512Z,-1.75
2023-03-16T00:58:57.990Z,-1.80
2023-03-16T01:01:25.260Z,-1.81
2023-03-16T01:03:53.583Z,-1.79
2023-03-16T01:06:20.907Z,-1.78
2023-03-16T01:08:48.307Z,-1.78
2023-03-16T01:11:17.742Z,-1.74
2023-03-16T01:13:47.016Z,-1.78
2023-03-16T01:16:15.450Z,-1.84
2023-03-16T01:18:42.633Z,-1.85
2023-03-16T01:21:10.352Z,-1.85
2023-03-16T01:23:37.553Z,-1.87
2023-03-16T01:26:04.890Z,-1.95
2023-03-16T01:28:33.471Z,-1.97
2023-03-16T01:31:06.581Z,-1.98
2023-03-16T01:33:34.375Z,-1.98
2023-03-16T01:36:10.077Z,-2.00
2023-03-16T01:38:37.485Z,-1.99
2023-03-16T01:41:05.360Z,-2.02
2023-03-16T01:43:37.800Z,-1.99
2023-03-16T01:46:07.996Z,-2.00
2023-03-16T01:48:58.426Z,-1.97
2023-03-16T01:51:29.714Z,-1.95
2023-03-16T01:54:01.355Z,-1.95
2023-03-16T01:56:36.257Z,-1.96
2023-03-16T01:59:08.151Z,-2.05
2023-03-16T02:01:35.608Z,-2.06
2023-03-16T02:04:10.679Z,-2.05
2023-03-16T02:06:38.219Z,-2.14
2023-03-16T02:09:05.758Z,-2.13
2023-03-16T02:11:34.751Z,-2.18
2023-03-16T02:14:07.414Z,-2.16
2023-03-16T02:16:34.806Z,-2.21
2023-03-16T02:19:01.958Z,-2.24
2023-03-16T02:21:35.782Z,-2.19
2023-03-16T02:24:03.966Z,-2.15
2023-03-16T02:26:38.662Z,-2.14
2023-03-16T02:29:25.681Z,-2.18
2023-03-16T02:31:53.858Z,-2.20
2023-03-16T02:34:21.400Z,-2.21
2023-03-16T02:36:49.800Z,-2.26
2023-03-16T02:39:16.881Z,-2.34
2023-03-16T02:41:44.443Z,-2.38
2023-03-16T02:44:16.077Z,-2.47
2023-03-16T02:46:44.480Z,-2.58
2023-03-16T02:49:20.767Z,-2.62
2023-03-16T02:51:47.994Z,-2.65
2023-03-16T02:54:15.064Z,-2.72
2023-03-16T02:56:42.203Z,-2.76
2023-03-16T02:59:09.631Z,-2.76
2023-03-16T03:01:37.881Z,-2.76
2023-03-16T03:04:05.948Z,-2.81
2023-03-16T03:06:33.138Z,-2.84
2023-03-16T03:09:02.004Z,-2.82
2023-03-16T03:11:29.811Z,-2.82
2023-03-16T03:13:58.605Z,-2.73
2023-03-16T03:16:26.251Z,-2.66
2023-03-16T03:18:53.592Z,-2.59
2023-03-16T03:21:21.206Z,-2.56
2023-03-16T03:23:48.300Z,-2.50
2023-03-16T03:26:16.182Z,-2.45
2023-03-16T03:28:44.538Z,-2.46
2023-03-16T03:31:19.629Z,-2.45
2023-03-16T03:33:46.693Z,-2.46
2023-03-16T03:36:14.365Z,-2.45
2023-03-16T03:38:41.530Z,-2.43
2023-03-16T03:41:08.594Z,-2.40
2023-03-16T03:43:35.759Z,-2.40
2023-03-16T03:46:04.104Z,-2.40
2023-03-16T03:48:31.596Z,-2.43
2023-03-16T03:50:58.802Z,-2.47
2023-03-16T03:53:25.870Z,-2.52
2023-03-16T03:55:52.900Z,-2.58
2023-03-16T03:58:20.097Z,-2.61
2023-03-16T04:00:47.464Z,-2.67
2023-03-16T04:03:14.825Z,-2.71
2023-03-16T04:05:41.944Z,-2.75
2023-03-16T04:08:09.028Z,-2.79
2023-03-16T04:10:36.104Z,-2.80
2023-03-16T04:13:03.301Z,-2.79
2023-03-16T04:15:33.020Z,-2.78
2023-03-16T04:18:00.208Z,-2.85
2023-03-16T04:20:27.531Z,-2.90
2023-03-16T04:22:58.862Z,-2.97
2023-03-16T04:25:26.985Z,-2.98
2023-03-16T04:27:54.552Z,-3.03
2023-03-16T04:30:23.311Z,-3.02
2023-03-16T04:32:52.337Z,-3.02
2023-03-16T04:35:19.495Z,-3.01
2023-03-16T04:37:46.820Z,-3.00
2023-03-16T04:40:16.553Z,-2.99
2023-03-16T04:42:45.087Z,-2.95
2023-03-16T04:45:12.686Z,-2.97
2023-03-16T04:47:40.256Z,-2.99
2023-03-16T04:50:08.528Z,-2.99
2023-03-16T04:52:35.560Z,-2.96
2023-03-16T04:55:02.608Z,-2.94
2023-03-16T04:57:30.414Z,-2.88
2023-03-16T04:59:57.672Z,-2.92
2023-03-16T05:02:24.741Z,-2.94
2023-03-16T05:04:52.022Z,-2.95
2023-03-16T05:07:19.216Z,-2.95
2023-03-16T05:09:46.355Z,-2.96
2023-03-16T05:12:13.410Z,-2.96
2023-03-16T05:14:40.565Z,-2.96
2023-03-16T05:17:07.674Z,-2.94
2023-03-16T05:19:34.827Z,-2.91
2023-03-16T05:22:01.935Z,-2.97
2023-03-16T05:24:29.015Z,-2.99
2023-03-16T05:26:56.039Z,-2.98
2023-03-16T05:29:23.110Z,-2.93
2023-03-16T05:31:50.653Z,-2.92
2023-03-16T05:34:17.716Z,-2.90
2023-03-16T05:36:45.605Z,-2.83
2023-03-16T05:39:13.218Z,-2.86
2023-03-16T05:41:40.413Z,-2.80
2023-03-16T05:44:08.597Z,-2.77
2023-03-16T05:46:36.262Z,-2.78
2023-03-16T05:49:03.787Z,-2.73
2023-03-16T05:51:31.042Z,-2.74
2023-03-16T05:53:58.118Z,-2.74
2023-03-16T05:56:28.881Z,-2.73
2023-03-16T05:58:56.161Z,-2.74
2023-03-16T06:01:23.821Z,-2.70
2023-03-16T06:03:51.996Z,-2.71
2023-03-16T06:06:21.565Z,-2.69
2023-03-16T06:08:48.818Z,-2.66
2023-03-16T06:11:16.507Z,-2.71
2023-03-16T06:13:43.804Z,-2.78
2023-03-16T06:16:14.589Z,-2.84
2023-03-16T06:18:41.771Z,-2.88
2023-03-16T06:21:08.884Z,-2.80
2023-03-16T06:23:35.923Z,-2.72
2023-03-16T06:26:03.354Z,-2.64
2023-03-16T06:28:30.754Z,-2.65
2023-03-16T06:30:58.379Z,-2.61
2023-03-16T06:33:25.724Z,-2.59
2023-03-16T06:35:52.964Z,-2.56
2023-03-16T06:38:20.218Z,-2.50
2023-03-16T06:40:52.064Z,-2.39
2023-03-16T06:43:19.409Z,-2.29
2023-03-16T06:45:46.506Z,-2.24
2023-03-16T06:48:13.583Z,-2.17
2023-03-16T06:50:41.288Z,-2.07
2023-03-16T06:53:08.464Z,-1.99
2023-03-16T06:55:35.511Z,-1.87
2023-03-16T06:58:02.571Z,-1.77
2023-03-16T07:00:30.669Z,-1.67
2023-03-16T07:03:00.331Z,-1.55
2023-03-16T07:05:27.937Z,-1.44
2023-03-16T07:07:54.973Z,-1.32
2023-03-16T07:10:22.122Z,-1.24
2023-03-16T07:12:50.301Z,-1.08
2023-03-16T07:15:17.873Z,-0.90
2023-03-16T07:17:44.987Z,-0.73
2023-03-16T07:20:13.022Z,-0.54
2023-03-16T07:22:40.275Z,-0.37
2023-03-16T07:25:07.863Z,-0.21
2023-03-16T07:27:35.085Z,-0.05
2023-03-16T07:30:04.597Z,0.17
2023-03-16T07:32:32.577Z,0.38
2023-03-16T07:34:59.988Z,0.55
2023-03-16T07:37:27.477Z,0.72
2023-03-16T07:39:54.834Z,0.88
2023-03-16T07:42:22.738Z,1.07
2023-03-16T07:44:51.781Z,1.26
2023-03-16T07:47:19.704Z,1.33
2023-03-16T07:49:46.960Z,1.49
2023-03-16T07:52:14.059Z,1.61
2023-03-16T07:54:41.470Z,1.59
2023-03-16T07:57:09.069Z,1.80
2023-03-16T07:59:36.161Z,1.99
2023-03-16T08:02:03.909Z,2.01
2023-03-16T08:04:32.036Z,2.05
2023-03-16T08:07:01.060Z,2.05
2023-03-16T08:09:28.100Z,2.14
2023-03-16T08:11:55.189Z,2.23
2023-03-16T08:14:22.274Z,2.35
2023-03-16T08:16:49.281Z,2.52
2023-03-16T08:19:17.529Z,2.50
2023-03-16T08:21:59.984Z,2.43
2023-03-16T08:24:29.571Z,2.57
2023-03-16T08:26:57.817Z,2.64
2023-03-16T08:29:26.147Z,2.70
2023-03-16T08:31:56.252Z,2.85
2023-03-16T08:34:24.900Z,2.88
2023-03-16T08:36:52.002Z,2.88
2023-03-16T08:39:19.161Z,2.90
2023-03-16T08:41:47.073Z,2.91
2023-03-16T08:44:14.176Z,2.91
2023-03-16T08:46:42.589Z,2.97
2023-03-16T08:49:09.995Z,3.01
2023-03-16T08:51:37.130Z,3.02
2023-03-16T08:54:04.243Z,3.01
2023-03-16T08:56:32.379Z,2.98
2023-03-16T08:58:59.747Z,3.05
2023-03-16T09:01:27.498Z,3.17
2023-03-16T09:03:54.984Z,3.36
2023-03-16T09:06:22.581Z,3.53
2023-03-16T09:08:49.650Z,3.80
2023-03-16T09:11:18.763Z,3.86
2023-03-16T09:13:46.181Z,3.95
2023-03-16T09:16:13.901Z,4.00
2023-03-16T09:18:42.172Z,4.18
2023-03-16T09:21:13.070Z,4.26
2023-03-16T09:23:42.641Z,4.31
2023-03-16T09:26:12.325Z,4.50
2023-03-16T09:28:42.028Z,4.53
2023-03-16T09:31:15.700Z,4.69
2023-03-16T09:33:42.924Z,4.71
2023-03-16T09:36:12.224Z,4.72
2023-03-16T09:38:40.528Z,4.75
2023-03-16T09:41:31.470Z,4.82
2023-03-16T09:44:05.615Z,4.68
2023-03-16T09:46:43.647Z,4.82
2023-03-16T09:49:11.820Z,4.90
2023-03-16T09:51:45.030Z,4.93
2023-03-16T09:54:47.899Z,5.01
2023-03-16T09:57:30.412Z,5.25
2023-03-16T10:00:06.153Z,5.33
2023-03-16T10:02:45.588Z,5.34
2023-03-16T10:05:16.062Z,5.49
2023-03-16T10:08:15.872Z,5.45
2023-03-16T10:11:10.814Z,5.54
2023-03-16T10:13:48.931Z,5.68
2023-03-16T10:16:37.554Z,5.61
2023-03-16T10:19:38.803Z,5.57
2023-03-16T10:22:33.705Z,5.62
2023-03-16T10:25:16.896Z,5.78
2023-03-16T10:27:46.145Z,5.70
2023-03-16T10:30:28.284Z,5.69
2023-03-16T10:32:57.677Z,5.72
2023-03-16T10:35:43.402Z,5.99
2023-03-16T10:38:27.909Z,6.26
2023-03-16T10:40:54.970Z,6.27
2023-03-16T10:43:22.691Z,6.47
2023-03-16T10:45:49.947Z,6.53
2023-03-16T10:48:20.382Z,6.64
2023-03-16T10:50:52.413Z,6.79
2023-03-16T10:53:28.724Z,6.96
2023-03-16T10:56:00.407Z,6.88
2023-03-16T10:58:33.716Z,6.91
2023-03-16T11:01:01.895Z,7.01
2023-03-16T11:03:39.976Z,7.00
2023-03-16T11:06:16.402Z,7.20
2023-03-16T11:08:43.581Z,7.29
2023-03-16T11:11:14.684Z,6.99
2023-03-16T11:13:48.340Z,6.94
2023-03-16T11:16:30.550Z,7.12
2023-03-16T11:19:00.356Z,7.29
2023-03-16T11:21:44.191Z,7.28
2023-03-16T11:24:20.141Z,7.30
2023-03-16T11:26:58.051Z,7.14
2023-03-16T11:29:34.319Z,7.20
2023-03-16T11:32:11.982Z,7.15
2023-03-16T11:34:40.058Z,6.97
2023-03-16T11:37:22.981Z,7.10
2023-03-16T11:40:14.995Z,7.27
2023-03-16T11:43:01.682Z,7.27
2023-03-16T11:45:43.090Z,7.26
2023-03-16T11:48:19.658Z,7.36
2023-03-16T11:51:09.467Z,7.53
2023-03-16T11:53:49.953Z,7.52
2023-03-16T11:56:29.498Z,7.51
2023-03-16T11:59:25.415Z,7.55
2023-03-16T12:02:50.096Z,7.63
2023-03-16T12:05:26.407Z,7.68
2023-03-16T12:08:25.677Z,7.78
2023-03-16T12:11:34.505Z,7.78
2023-03-16T12:14:15.685Z,7.74
2023-03-16T12:16:52.095Z,7.64
2023-03-16T12:19:31.558Z,7.75
2023-03-16T12:22:07.689Z,7.75
2023-03-16T12:24:40.834Z,7.86
2023-03-16T12:27:17.739Z,7.76
2023-03-16T12:29:56.960Z,7.92
2023-03-16T12:32:37.346Z,7.99
2023-03-16T12:35:24.826Z,7.97
2023-03-16T12:38:06.006Z,7.94
2023-03-16T12:40:40.635Z,7.84
2023-03-16T12:43:37.554Z,7.80
2023-03-16T12:46:22.958Z,7.75
2023-03-16T12:48:52.988Z,7.78
2023-03-16T12:51:20.077Z,7.63
2023-03-16T12:53:54.934Z,7.53
2023-03-16T12:56:30.395Z,7.72
2023-03-16T12:59:00.269Z,7.47
2023-03-16T13:01:37.623Z,7.40
2023-03-16T13:04:24.121Z,7.23
2023-03-16T13:07:01.866Z,7.01
2023-03-16T13:09:31.984Z,7.02
2023-03-16T13:12:04.863Z,7.00
2023-03-16T13:14:40.647Z,6.90
2023-03-16T13:17:16.881Z,6.80
2023-03-16T13:19:46.658Z,6.98
2023-03-16T13:22:22.468Z,7.18
2023-03-16T13:24:53.014Z,7.08
2023-03-16T13:27:34.238Z,6.97
2023-03-16T13:30:03.698Z,7.14
2023-03-16T13:32:32.870Z,7.17
2023-03-16T13:35:02.298Z,7.23
2023-03-16T13:37:29.931Z,7.32
2023-03-16T13:40:01.754Z,7.28
2023-03-16T13:42:34.092Z,7.28
2023-03-16T13:45:13.118Z,7.27
2023-03-16T13:47:43.442Z,7.24
2023-03-16T13:50:12.522Z,7.24
2023-03-16T13:52:40.190Z,7.06
2023-03-16T13:55:16.145Z,7.21
2023-03-16T13:57:44.310Z,7.21
2023-03-16T14:00:20.476Z,7.23
2023-03-16T14:02:52.167Z,7.15
2023-03-16T14:05:22.529Z,7.08
2023-03-16T14:07:51.420Z,7.21
2023-03-16T14:10:18.762Z,7.22
2023-03-16T14:12:58.144Z,7.16
2023-03-16T14:15:27.179Z,7.20
2023-03-16T14:17:55.609Z,7.28
2023-03-16T14:20:25.543Z,7.35
2023-03-16T14:22:53.664Z,7.29
2023-03-16T14:25:25.462Z,7.24
2023-03-16T14:28:06.271Z,7.24
2023-03-16T14:30:33.415Z,7.26
2023-03-16T14:33:25.262Z,7.31
2023-03-16T14:35:57.188Z,7.40
2023-03-16T14:38:31.922Z,7.41
2023-03-16T14:41:21.357Z,7.36
2023-03-16T14:43:51.568Z,7.32
2023-03-16T14:46:27.649Z,7.21
2023-03-16T14:49:03.558Z,7.26
2023-03-16T14:51:31.932Z,7.31
2023-03-16T14:53:58.971Z,7.34
2023-03-16T14:56:32.734Z,7.41
2023-03-16T14:59:00.609Z,7.40
2023-03-16T15:01:27.770Z,7.36
2023-03-16T15:03:54.958Z,7.36
2023-03-16T15:06:22.550Z,7.48
2023-03-16T15:08:50.838Z,7.40
2023-03-16T15:11:22.026Z,7.42
2023-03-16T15:13:49.114Z,7.30
2023-03-16T15:16:16.202Z,7.15
2023-03-16T15:18:44.145Z,7.17
2023-03-16T15:21:12.912Z,7.21
2023-03-16T15:23:42.793Z,7.30
2023-03-16T15:26:15.918Z,7.31
2023-03-16T15:28:43.049Z,7.26
2023-03-16T15:31:12.320Z,7.23
2023-03-16T15:33:39.439Z,7.22
2023-03-16T15:36:22.063Z,7.27
2023-03-16T15:38:51.500Z,7.30
2023-03-16T15:41:18.662Z,7.25
2023-03-16T15:43:46.177Z,7.23
2023-03-16T15:46:14.708Z,7.27
2023-03-16T15:48:41.790Z,7.03
2023-03-16T15:51:19.186Z,7.03
2023-03-16T15:53:50.219Z,6.96
2023-03-16T15:56:22.046Z,6.96
2023-03-16T15:58:49.650Z,6.88
2023-03-16T16:01:28.006Z,6.73
2023-03-16T16:03:56.101Z,6.71
2023-03-16T16:06:24.117Z,6.65
2023-03-16T16:08:51.473Z,6.52
2023-03-16T16:11:26.387Z,6.46
2023-03-16T16:13:57.520Z,6.42
2023-03-16T16:16:27.308Z,6.37
2023-03-16T16:18:54.661Z,6.34
2023-03-16T16:21:28.882Z,6.27
2023-03-16T16:23:55.994Z,6.22
2023-03-16T16:26:27.828Z,6.17
2023-03-16T16:28:59.269Z,6.13
2023-03-16T16:31:29.291Z,6.07
2023-03-16T16:33:56.459Z,6.00
2023-03-16T16:36:25.254Z,5.97
2023-03-16T16:38:54.693Z,5.89
2023-03-16T16:41:29.784Z,5.92
2023-03-16T16:43:57.074Z,5.84
2023-03-16T16:46:26.599Z,5.79
2023-03-16T16:48:58.414Z,5.76
2023-03-16T16:51:27.715Z,5.78
2023-03-16T16:54:10.821Z,5.72
2023-03-16T16:56:38.755Z,5.69
2023-03-16T16:59:18.504Z,5.58
2023-03-16T17:01:54.149Z,5.57
2023-03-16T17:04:24.816Z,5.53
2023-03-16T17:06:55.660Z,5.51
2023-03-16T17:09:24.548Z,5.49
2023-03-16T17:11:52.482Z,5.47
2023-03-16T17:14:21.403Z,5.45
2023-03-16T17:16:50.411Z,5.42
2023-03-16T17:19:27.058Z,5.40
2023-03-16T17:21:57.318Z,5.43
2023-03-16T17:24:24.962Z,5.40
2023-03-16T17:26:54.172Z,5.41
2023-03-16T17:29:29.007Z,5.41
2023-03-16T17:31:56.309Z,5.41
2023-03-16T17:34:25.855Z,5.38
2023-03-16T17:36:53.745Z,5.34
2023-03-16T17:39:29.531Z,5.31
2023-03-16T17:41:58.571Z,5.27
2023-03-16T17:44:27.520Z,5.22
2023-03-16T17:46:54.644Z,5.23
2023-03-16T17:49:24.128Z,5.22
2023-03-16T17:51:51.414Z,5.28
2023-03-16T17:54:18.746Z,5.33
2023-03-16T17:56:47.974Z,5.36
2023-03-16T17:59:20.115Z,5.37
2023-03-16T18:01:47.750Z,5.32
2023-03-16T18:04:22.802Z,5.23
2023-03-16T18:06:51.183Z,5.24
2023-03-16T18:09:19.628Z,5.18
2023-03-16T18:11:49.224Z,5.15
2023-03-16T18:14:35.473Z,5.16
2023-03-16T18:17:29.582Z,5.11
2023-03-16T18:19:56.925Z,5.06
2023-03-16T18:22:24.697Z,5.07
2023-03-16T18:24:53.218Z,5.05
2023-03-16T18:27:20.607Z,5.03
2023-03-16T18:29:48.072Z,5.04
2023-03-16T18:32:27.347Z,4.96
2023-03-16T18:34:54.811Z,4.94
2023-03-16T18:37:24.076Z,4.90
2023-03-16T18:39:52.365Z,4.85
2023-03-16T18:42:24.125Z,4.87
2023-03-16T18:44:51.754Z,4.81
2023-03-16T18:47:22.382Z,4.82
2023-03-16T18:49:52.886Z,4.79
2023-03-16T18:52:25.156Z,4.80
2023-03-16T18:54:53.087Z,4.80
2023-03-16T18:57:22.636Z,4.76
2023-03-16T18:59:50.525Z,4.72
2023-03-16T19:02:37.402Z,4.66
2023-03-16T19:05:13.575Z,4.61
2023-03-16T19:07:42.380Z,4.57
2023-03-16T19:10:36.586Z,4.58
2023-03-16T19:13:04.457Z,4.48
2023-03-16T19:15:39.376Z,4.41
2023-03-16T19:18:06.496Z,4.40
2023-03-16T19:20:34.576Z,4.33
2023-03-16T19:23:06.869Z,4.37
2023-03-16T19:25:39.112Z,4.31
2023-03-16T19:28:07.667Z,4.32
2023-03-16T19:30:35.883Z,4.29
2023-03-16T19:33:03.281Z,4.30
2023-03-16T19:35:48.483Z,4.29
2023-03-16T19:38:18.062Z,4.29
2023-03-16T19:40:46.421Z,4.29
2023-03-16T19:43:18.403Z,4.28
2023-03-16T19:45:46.791Z,4.27
2023-03-16T19:48:22.566Z,4.27
2023-03-16T19:50:50.642Z,4.30
2023-03-16T19:53:20.652Z,4.28
2023-03-16T19:55:49.019Z,4.31
2023-03-16T19:58:30.369Z,4.35
2023-03-16T20:00:58.909Z,4.33
2023-03-16T20:03:26.080Z,4.32
2023-03-16T20:05:54.587Z,4.26
2023-03-16T20:08:29.085Z,4.23
2023-03-16T20:11:00.852Z,4.23
2023-03-16T20:13:28.480Z,4.25
2023-03-16T20:15:55.840Z,4.19
2023-03-16T20:18:23.538Z,4.17
2023-03-16T20:20:50.782Z,4.21
2023-03-16T20:23:20.812Z,4.21
2023-03-16T20:25:48.424Z,4.15
2023-03-16T20:28:21.281Z,4.08
2023-03-16T20:30:49.275Z,4.11
2023-03-16T20:33:22.713Z,4.10
2023-03-16T20:35:53.553Z,4.12
2023-03-16T20:38:22.227Z,4.13
2023-03-16T20:40:52.227Z,4.12
2023-03-16T20:43:26.986Z,4.09
2023-03-16T20:45:55.979Z,4.07
2023-03-16T20:48:25.506Z,4.03
2023-03-16T20:50:53.682Z,4.03
2023-03-16T20:53:21.448Z,4.03
2023-03-16T20:55:50.103Z,4.02
2023-03-16T20:58:24.406Z,3.99
2023-03-16T21:00:53.447Z,3.96
2023-03-16T21:03:23.456Z,3.91
2023-03-16T21:05:52.009Z,3.91
2023-03-16T21:08:19.538Z,3.94
2023-03-16T21:10:49.820Z,3.89
2023-03-16T21:13:21.199Z,3.93
2023-03-16T21:15:52.217Z,3.96
2023-03-16T21:18:20.580Z,3.93
2023-03-16T21:20:48.994Z,3.93
2023-03-16T21:23:19.886Z,3.96
2023-03-16T21:25:53.508Z,3.94
2023-03-16T21:28:21.846Z,3.90
2023-03-16T21:30:51.243Z,3.94
2023-03-16T21:33:30.020Z,3.94
2023-03-16T21:35:58.641Z,3.94
2023-03-16T21:38:27.298Z,3.93
2023-03-16T21:40:54.978Z,3.93
2023-03-16T21:43:22.496Z,3.91
2023-03-16T21:45:51.080Z,3.94
2023-03-16T21:48:27.491Z,3.91
2023-03-16T21:50:54.824Z,3.93
2023-03-16T21:53:24.936Z,3.94
2023-03-16T21:55:53.368Z,3.94
2023-03-16T21:58:22.150Z,3.95
2023-03-16T22:00:50.938Z,3.94
2023-03-16T22:03:37.836Z,3.93
2023-03-16T22:06:15.005Z,3.95
2023-03-16T22:08:42.640Z,3.96
2023-03-16T22:11:16.374Z,3.97
2023-03-16T22:13:43.459Z,3.94
2023-03-16T22:16:15.950Z,3.94
2023-03-16T22:18:43.622Z,3.94
2023-03-16T22:21:29.424Z,4.01
2023-03-16T22:23:57.071Z,4.05
2023-03-16T22:26:24.457Z,4.07
2023-03-16T22:28:52.432Z,4.10
2023-03-16T22:31:22.523Z,4.06
2023-03-16T22:33:50.189Z,4.09
2023-03-16T22:36:19.831Z,4.12
2023-03-16T22:38:56.517Z,4.14
2023-03-16T22:41:23.748Z,4.22
2023-03-16T22:43:51.324Z,4.21
2023-03-16T22:46:23.680Z,4.18
2023-03-16T22:48:52.210Z,4.19
2023-03-16T22:51:24.335Z,4.20
2023-03-16T22:53:54.032Z,4.20
2023-03-16T22:56:21.078Z,4.21
2023-03-16T22:58:51.060Z,4.24
2023-03-16T23:01:23.272Z,4.19
2023-03-16T23:03:53.159Z,4.22
2023-03-16T23:06:25.444Z,4.25
2023-03-16T23:08:54.334Z,4.27
2023-03-16T23:11:30.976Z,4.27
2023-03-16T23:13:59.627Z,4.27
2023-03-16T23:16:34.013Z,4.30
2023-03-16T23:19:02.312Z,4.33
2023-03-16T23:21:30.217Z,4.32
2023-03-16T23:24:03.887Z,4.29
2023-03-16T23:26:31.882Z,4.27
2023-03-16T23:28:59.195Z,4.30
2023-03-16T23:31:27.168Z,4.31
2023-03-16T23:33:54.800Z,4.27
2023-03-16T23:36:24.561Z,4.27
2023-03-16T23:38:51.729Z,4.28
2023-03-16T23:41:23.702Z,4.25
2023-03-16T23:43:51.764Z,4.26
2023-03-16T23:46:20.690Z,4.33
2023-03-16T23:48:48.813Z,4.29
2023-03-16T23:51:28.932Z,4.29
2023-03-16T23:53:57.764Z,4.26
2023-03-16T23:56:27.107Z,4.29
2023-03-16T23:58:54.861Z,4.25
